Terminal Aerodrome Forecast
Issued by NWS

Home | Current Version | Previous Version | Text Only | Print | Product List | Glossary On
Versions: 1 2 3 4 5 6 7 8 9 10 11 12 13 14 15 16
000
FTUS45 KTFX 170115 AAA
TAFHVR
TAF AMD
KHVR 170115Z 1701/1724 23016KT P6SM BKN200 WS015/26040KT
     FM171500 24022G30KT P6SM SCT100 BKN180 WS020/25045KT
     FM171800 25030G40KT P6SM SCT100 BKN180=

USA.gov is the U.S. government's official web portal to all federal, state and local government web resources and services.